Time;durP1;ratioP1;P1;durP2;ratioP2;P2;SDS_P1;SDS_P2;PMS_P1;PMS_P2;Temp;Humidity;BMP_temperature;BMP_pressure;BME280_temperature;BME280_humidity;BME280_pressure;Samples;Min_cycle;Max_cycle;Signal;HPM_P1;HPM_P2
2023/03/04 00:01:34;;;;;;;23.95;9.05;;;;;;;4.50;100.00;102685.66;5205595;28;20041;-76
2023/03/04 00:04:05;;;;;;;45.97;11.55;;;;;;;4.52;100.00;102681.13;5213840;28;20029;-76
2023/03/04 00:06:35;;;;;;;27.30;10.05;;;;;;;4.56;100.00;102679.13;5222996;28;20428;-75
2023/03/04 00:09:06;;;;;;;24.90;8.02;;;;;;;4.50;100.00;102682.13;5223020;28;20116;-76
2023/03/04 00:11:36;;;;;;;26.23;8.50;;;;;;;4.53;100.00;102679.31;5223039;28;20032;-76
2023/03/04 00:14:07;;;;;;;29.42;8.57;;;;;;;4.51;100.00;102675.88;5223100;28;20028;-76
2023/03/04 00:16:37;;;;;;;25.40;7.95;;;;;;;4.54;100.00;102678.38;5222707;28;20063;-76
2023/03/04 00:19:09;;;;;;;27.70;8.48;;;;;;;4.48;100.00;102679.56;5205754;28;20090;-76
2023/03/04 00:21:40;;;;;;;31.55;9.15;;;;;;;4.50;100.00;102677.66;5204875;28;20028;-76
2023/03/04 00:24:10;;;;;;;27.02;8.45;;;;;;;4.50;100.00;102682.13;5223054;28;20029;-76
2023/03/04 00:26:41;;;;;;;27.13;8.95;;;;;;;4.45;100.00;102678.88;5222487;28;20630;-75
2023/03/04 00:29:11;;;;;;;24.48;8.55;;;;;;;4.41;100.00;102678.16;5222990;28;20064;-75
2023/03/04 00:31:42;;;;;;;29.23;8.30;;;;;;;4.39;100.00;102675.59;5222943;28;20025;-75
2023/03/04 00:34:12;;;;;;;21.80;7.72;;;;;;;4.61;100.00;102674.44;5222788;28;20056;-76
2023/03/04 00:36:43;;;;;;;27.95;8.73;;;;;;;4.59;100.00;102673.66;5222847;28;20020;-76
2023/03/04 00:39:14;;;;;;;35.63;7.88;;;;;;;4.59;100.00;102674.53;5223170;28;20089;-75
2023/03/04 00:41:45;;;;;;;22.20;7.35;;;;;;;4.61;100.00;102677.09;5222829;28;20028;-76
2023/03/04 00:44:15;;;;;;;22.85;7.88;;;;;;;4.58;100.00;102677.28;5222886;28;20060;-75
2023/03/04 00:46:46;;;;;;;34.60;9.75;;;;;;;4.53;100.00;102674.88;5222156;28;20119;-76
2023/03/04 00:49:16;;;;;;;26.27;9.48;;;;;;;4.52;100.00;102678.47;5223061;28;20025;-76
2023/03/04 00:51:47;;;;;;;32.80;9.60;;;;;;;4.63;100.00;102677.88;5208728;28;20033;-76
2023/03/04 00:54:17;;;;;;;29.75;9.15;;;;;;;4.59;100.00;102676.31;5208763;28;20024;-75
2023/03/04 00:56:48;;;;;;;28.73;9.23;;;;;;;4.58;100.00;102677.28;5225997;28;20031;-76
2023/03/04 00:59:18;;;;;;;35.13;9.65;;;;;;;4.62;100.00;102676.19;5226023;28;20382;-75
2023/03/04 01:01:49;;;;;;;23.67;9.00;;;;;;;4.62;100.00;102671.72;5226446;28;20033;-74
2023/03/04 01:04:19;;;;;;;19.73;7.95;;;;;;;4.68;100.00;102673.19;5217437;28;20091;-76
2023/03/04 01:06:50;;;;;;;26.52;8.32;;;;;;;4.63;100.00;102677.88;5226798;28;20108;-75
2023/03/04 01:09:20;;;;;;;22.38;8.48;;;;;;;4.54;100.00;102681.03;5228976;28;20116;-76
2023/03/04 01:11:51;;;;;;;31.65;8.27;;;;;;;4.50;100.00;102674.16;5226603;28;20083;-76
2023/03/04 01:14:22;;;;;;;27.25;8.23;;;;;;;4.51;100.00;102675.88;5208619;28;20024;-75
2023/03/04 01:16:55;;;;;;;25.60;8.63;;;;;;;4.57;100.00;102672.91;5225736;28;20029;-76
2023/03/04 01:19:26;;;;;;;32.55;9.00;;;;;;;4.56;100.00;102673.81;5226174;28;20547;-76
2023/03/04 01:21:56;;;;;;;27.90;8.60;;;;;;;4.52;100.00;102665.19;5225611;28;20032;-76
2023/03/04 01:24:28;;;;;;;23.30;7.97;;;;;;;4.52;100.00;102666.94;5226493;28;20031;-75
2023/03/04 01:26:59;;;;;;;29.27;8.10;;;;;;;4.48;100.00;102671.59;5225503;28;20025;-75
2023/03/04 01:29:29;;;;;;;33.70;8.30;;;;;;;4.47;100.00;102664.56;5225679;28;20075;-75
2023/03/04 01:32:00;;;;;;;31.67;7.95;;;;;;;4.54;100.00;102670.41;5225924;28;20079;-76
2023/03/04 01:34:30;;;;;;;22.80;6.63;;;;;;;4.54;100.00;102663.28;5225492;28;20025;-76
2023/03/04 01:37:01;;;;;;;22.52;7.00;;;;;;;4.58;100.00;102661.31;5225274;28;20025;-76
2023/03/04 01:39:32;;;;;;;27.27;7.47;;;;;;;4.52;100.00;102654.53;5225540;28;20401;-75
2023/03/04 01:42:02;;;;;;;26.48;7.35;;;;;;;4.53;100.00;102656.25;5225769;28;20037;-76
2023/03/04 01:44:33;;;;;;;27.67;6.95;;;;;;;4.54;100.00;102650.00;5225423;28;20444;-75
2023/03/04 01:47:03;;;;;;;26.55;7.10;;;;;;;4.66;100.00;102651.13;5224884;28;20461;-75
2023/03/04 01:49:34;;;;;;;22.80;6.35;;;;;;;4.70;100.00;102641.19;5225247;28;20048;-76
2023/03/04 01:52:09;;;;;;;28.08;6.65;;;;;;;4.68;100.00;102649.25;5225723;28;20021;-76
2023/03/04 01:54:40;;;;;;;18.33;6.18;;;;;;;4.63;100.00;102632.69;5225420;28;20025;-76
2023/03/04 01:57:34;;;;;;;21.02;5.85;;;;;;;4.54;100.00;102638.50;5225279;28;20082;-76
2023/03/04 02:00:23;;;;;;;20.92;6.95;;;;;;;4.48;100.00;102629.06;5213665;28;20025;-76
2023/03/04 02:02:59;;;;;;;19.58;5.45;;;;;;;4.47;100.00;102630.00;5224033;28;20048;-76
2023/03/04 02:05:30;;;;;;;26.73;6.35;;;;;;;4.43;100.00;102639.09;5218543;28;20047;-76
2023/03/04 02:08:03;;;;;;;27.30;6.28;;;;;;;4.39;100.00;102626.91;5225058;28;20025;-75
2023/03/04 02:10:34;;;;;;;28.58;6.07;;;;;;;4.37;100.00;102626.13;5224812;28;20025;-75
2023/03/04 02:13:05;;;;;;;21.10;6.40;;;;;;;4.39;100.00;102619.78;5225337;28;20025;-75
2023/03/04 02:15:36;;;;;;;28.73;7.15;;;;;;;4.53;100.00;102610.22;5207625;28;20052;-76
2023/03/04 02:18:14;;;;;;;26.90;6.03;;;;;;;4.50;100.00;102608.56;5224799;28;20064;-76
2023/03/04 02:21:06;;;;;;;18.30;5.70;;;;;;;4.58;100.00;102606.34;5225075;28;20028;-76
2023/03/04 02:23:43;;;;;;;30.27;6.28;;;;;;;4.56;100.00;102602.06;5225108;28;20076;-75
2023/03/04 02:26:34;;;;;;;30.98;7.90;;;;;;;4.58;100.00;102605.50;5225070;28;20031;-75
2023/03/04 02:29:04;;;;;;;29.88;6.70;;;;;;;4.61;100.00;102605.31;5224853;28;20484;-76
2023/03/04 02:31:50;;;;;;;23.63;6.60;;;;;;;4.71;100.00;102597.69;5224985;28;20079;-76
2023/03/04 02:34:22;;;;;;;25.30;6.63;;;;;;;4.75;100.00;102602.75;5224988;28;20056;-76
2023/03/04 02:36:54;;;;;;;32.50;6.00;;;;;;;4.72;100.00;102599.41;5224066;28;20545;-75
2023/03/04 02:39:40;;;;;;;26.27;7.63;;;;;;;4.74;100.00;102601.03;5207052;28;20031;-76
2023/03/04 02:42:11;;;;;;;28.42;6.38;;;;;;;4.72;100.00;102592.31;5212394;28;20108;-75
2023/03/04 02:44:47;;;;;;;20.15;5.97;;;;;;;4.71;100.00;102593.22;5224916;28;20032;-76
2023/03/04 02:47:17;;;;;;;;;;;;;;;4.64;100.00;102587.41;5206706;28;20029;-75
2023/03/04 02:49:48;;;;;;;33.40;6.60;;;;;;;4.58;100.00;102594.88;5224298;28;20151;-76
2023/03/04 02:52:22;;;;;;;25.67;6.55;;;;;;;4.53;100.00;102580.97;5206883;28;20036;-75
2023/03/04 02:54:52;;;;;;;24.58;8.00;;;;;;;4.49;100.00;102585.59;5224472;28;20394;-75
2023/03/04 02:57:30;;;;;;;27.92;5.93;;;;;;;4.49;100.00;102582.09;5224053;28;20024;-76
2023/03/04 03:00:01;;;;;;;20.95;5.57;;;;;;;4.58;100.00;102586.91;5223837;28;20028;-76
2023/03/04 03:02:31;;;;;;;23.42;6.72;;;;;;;4.60;100.00;102580.53;5224499;28;20033;-75
2023/03/04 03:05:03;;;;;;;32.25;6.93;;;;;;;4.57;100.00;102580.72;5215713;28;20086;-75
2023/03/04 03:07:41;;;;;;;27.77;6.15;;;;;;;4.51;100.00;102581.03;5224009;28;20045;-75
2023/03/04 03:10:12;;;;;;;26.20;6.03;;;;;;;4.48;100.00;102583.03;5223810;28;20044;-75
2023/03/04 03:12:43;;;;;;;24.80;7.45;;;;;;;4.47;100.00;102574.19;5206092;28;20029;-75
2023/03/04 03:15:14;;;;;;;24.50;7.15;;;;;;;4.49;100.00;102571.44;5224182;28;20102;-75
2023/03/04 03:17:50;;;;;;;19.02;6.00;;;;;;;4.51;100.00;102574.88;5224124;28;20027;-75
2023/03/04 03:20:20;;;;;;;24.65;6.32;;;;;;;4.52;100.00;102574.81;5224086;28;20060;-76
2023/03/04 03:22:51;;;;;;;29.55;6.28;;;;;;;4.52;100.00;102584.56;5223744;28;20035;-75
2023/03/04 03:25:22;;;;;;;18.55;5.75;;;;;;;4.53;100.00;102579.19;5223973;28;20027;-75
2023/03/04 03:27:52;;;;;;;25.00;5.70;;;;;;;4.57;100.00;102575.41;5223840;28;20021;-76
2023/03/04 03:30:23;;;;;;;29.55;6.45;;;;;;;4.62;100.00;102576.00;5224012;28;20103;-76
2023/03/04 03:32:53;;;;;;;26.50;6.40;;;;;;;4.72;100.00;102580.78;5206427;28;20513;-76
2023/03/04 03:35:24;;;;;;;31.08;7.78;;;;;;;4.72;100.00;102573.69;5223315;28;20025;-76
2023/03/04 03:37:54;;;;;;;26.40;5.88;;;;;;;4.74;100.00;102570.94;5223488;28;20426;-76
2023/03/04 03:40:28;;;;;;;26.33;6.50;;;;;;;4.71;100.00;102581.72;5223606;28;20040;-75
2023/03/04 03:42:58;;;;;;;21.90;4.93;;;;;;;4.77;100.00;102582.28;5206084;28;20074;-75
2023/03/04 03:45:29;;;;;;;31.08;6.63;;;;;;;4.81;100.00;102580.28;5223937;28;20493;-76
2023/03/04 03:47:59;;;;;;;17.20;6.05;;;;;;;4.78;100.00;102581.31;5223056;28;20029;-75
2023/03/04 03:50:30;;;;;;;22.58;6.28;;;;;;;4.72;100.00;102581.69;5223642;28;20025;-75
2023/03/04 03:53:00;;;;;;;20.35;5.28;;;;;;;4.78;100.00;102577.81;5223841;28;20650;-75
2023/03/04 03:55:32;;;;;;;31.48;5.03;;;;;;;4.71;100.00;102579.94;5223778;28;20027;-75
2023/03/04 03:58:02;;;;;;;21.80;5.15;;;;;;;4.71;100.00;102574.63;5223004;28;20108;-76
2023/03/04 04:00:32;;;;;;;24.85;5.63;;;;;;;4.73;100.00;102577.22;5223366;28;20125;-75
2023/03/04 04:03:03;;;;;;;24.13;5.35;;;;;;;4.75;100.00;102583.28;5221219;28;20025;-76
2023/03/04 04:05:33;;;;;;;20.52;5.10;;;;;;;4.75;100.00;102586.81;5216267;28;20029;-75
2023/03/04 04:08:04;;;;;;;18.88;5.85;;;;;;;4.73;100.00;102588.69;5223455;28;20052;-75
2023/03/04 04:10:34;;;;;;;25.60;4.85;;;;;;;4.71;100.00;102577.28;5222752;28;20071;-75
2023/03/04 04:13:05;;;;;;;23.23;5.57;;;;;;;4.69;100.00;102587.16;5223860;28;20047;-75
2023/03/04 04:15:37;;;;;;;21.67;5.13;;;;;;;4.67;100.00;102591.72;5223399;28;20025;-75
2023/03/04 04:18:08;;;;;;;20.65;5.18;;;;;;;4.66;100.00;102577.53;5223141;28;20032;-75
2023/03/04 04:20:38;;;;;;;22.70;5.15;;;;;;;4.64;100.00;102586.56;5223540;28;20036;-76
2023/03/04 04:23:10;;;;;;;24.77;6.07;;;;;;;4.62;100.00;102588.44;5223059;28;20405;-76
2023/03/04 04:25:40;;;;;;;26.17;5.97;;;;;;;4.63;100.00;102580.38;5225960;28;20443;-76
2023/03/04 04:28:11;;;;;;;30.58;5.03;;;;;;;4.63;100.00;102584.84;5227240;28;20021;-75
2023/03/04 04:30:41;;;;;;;22.85;5.43;;;;;;;4.60;100.00;102585.00;5209488;28;20108;-76
2023/03/04 04:33:12;;;;;;;18.27;4.50;;;;;;;4.59;100.00;102585.94;5227342;28;20017;-75
2023/03/04 04:35:42;;;;;;;17.80;4.30;;;;;;;4.57;100.00;102586.03;5209010;28;20040;-75
2023/03/04 04:38:13;;;;;;;17.27;4.93;;;;;;;4.55;100.00;102582.59;5226776;28;20033;-76
2023/03/04 04:40:43;;;;;;;24.88;7.18;;;;;;;4.54;100.00;102585.34;5226991;28;20021;-76
2023/03/04 04:43:14;;;;;;;15.57;4.15;;;;;;;4.55;100.00;102581.75;5227172;28;20028;-76
2023/03/04 04:45:44;;;;;;;22.23;4.95;;;;;;;4.60;100.00;102585.00;5227357;28;20481;-75
2023/03/04 04:48:15;;;;;;;19.13;4.97;;;;;;;4.74;100.00;102585.09;5226144;28;20099;-76
2023/03/04 04:50:45;;;;;;;21.55;5.00;;;;;;;4.76;100.00;102587.66;5226910;28;20033;-76
2023/03/04 04:53:16;;;;;;;24.60;5.07;;;;;;;4.75;100.00;102589.47;5226390;28;20036;-76
2023/03/04 04:55:46;;;;;;;21.65;4.43;;;;;;;4.73;100.00;102591.34;5226808;28;20052;-76
2023/03/04 04:58:17;;;;;;;19.00;4.55;;;;;;;4.74;100.00;102595.72;5226512;28;20099;-75
2023/03/04 05:00:47;;;;;;;16.95;4.40;;;;;;;4.70;100.00;102594.19;5208378;28;20087;-75
2023/03/04 05:03:18;;;;;;;19.98;5.70;;;;;;;4.71;100.00;102595.03;5222394;28;20029;-75
2023/03/04 05:05:48;;;;;;;22.70;4.53;;;;;;;4.71;100.00;102590.56;5222095;28;20040;-75
2023/03/04 05:08:19;;;;;;;24.20;6.32;;;;;;;4.76;100.00;102595.63;5226304;28;20032;-75
2023/03/04 05:10:51;;;;;;;23.60;5.38;;;;;;;4.73;100.00;102587.84;5226044;28;20036;-75
2023/03/04 05:13:24;;;;;;;16.90;4.90;;;;;;;4.74;100.00;102593.06;5226236;28;20448;-75
2023/03/04 05:15:56;;;;;;;23.33;5.68;;;;;;;4.70;100.00;102596.84;5226312;28;20432;-75
2023/03/04 05:18:27;;;;;;;20.90;4.70;;;;;;;4.65;100.00;102591.78;5226157;28;20131;-75
2023/03/04 05:20:59;;;;;;;22.88;5.88;;;;;;;4.66;100.00;102595.28;5226175;28;20095;-75
2023/03/04 05:23:32;;;;;;;16.90;6.43;;;;;;;4.65;100.00;102589.13;5225858;28;20112;-75
2023/03/04 05:26:05;;;;;;;16.75;4.57;;;;;;;4.60;100.00;102587.66;5226289;28;20674;-75
2023/03/04 05:28:35;;;;;;;19.08;6.15;;;;;;;4.61;100.00;102592.03;5225593;28;20532;-75
2023/03/04 05:31:06;;;;;;;18.85;4.88;;;;;;;4.57;100.00;102587.84;5226091;28;20092;-75
2023/03/04 05:33:37;;;;;;;16.58;5.75;;;;;;;4.54;100.00;102586.19;5225951;28;20025;-75
2023/03/04 05:36:08;;;;;;;17.77;5.30;;;;;;;4.57;100.00;102587.84;5225581;28;20417;-75
2023/03/04 05:38:38;;;;;;;23.80;6.55;;;;;;;4.61;100.00;102586.72;5225696;28;20024;-75
2023/03/04 05:41:09;;;;;;;29.73;6.75;;;;;;;4.60;100.00;102587.66;5226032;28;20445;-75
2023/03/04 05:43:41;;;;;;;25.40;6.07;;;;;;;4.55;100.00;102587.91;5218250;28;20036;-75
2023/03/04 05:46:15;;;;;;;29.83;6.63;;;;;;;4.60;100.00;102585.84;5220421;28;20021;-75
2023/03/04 05:48:46;;;;;;;24.93;7.53;;;;;;;4.57;100.00;102590.50;5225270;28;20047;-75
2023/03/04 05:51:17;;;;;;;27.10;6.88;;;;;;;4.65;100.00;102588.25;5225514;28;20021;-75
2023/03/04 05:53:48;;;;;;;35.40;8.35;;;;;;;4.67;100.00;102597.03;5225961;28;20036;-75
2023/03/04 05:56:22;;;;;;;36.05;8.38;;;;;;;4.70;100.00;102598.63;5225738;28;20098;-75
2023/03/04 05:58:56;;;;;;;28.83;7.40;;;;;;;4.78;100.00;102597.28;5191587;28;20051;-75
2023/03/04 06:01:26;;;;;;;26.42;8.60;;;;;;;4.83;100.00;102602.34;5225462;28;20024;-76
2023/03/04 06:03:57;;;;;;;23.85;7.50;;;;;;;4.80;100.00;102597.19;5216359;28;20022;-75
2023/03/04 06:06:27;;;;;;;28.30;9.10;;;;;;;4.85;100.00;102598.63;5225127;28;20075;-75
2023/03/04 06:08:59;;;;;;;28.77;7.20;;;;;;;4.89;100.00;102599.31;5208096;28;20029;-75
2023/03/04 06:11:29;;;;;;;28.13;7.45;;;;;;;4.84;100.00;102593.41;5207009;28;20021;-75
2023/03/04 06:14:00;;;;;;;29.00;7.60;;;;;;;4.81;100.00;102598.88;5225427;28;20115;-76
2023/03/04 06:16:30;;;;;;;20.70;7.35;;;;;;;4.79;100.00;102603.44;5224909;28;20470;-75
2023/03/04 06:19:01;;;;;;;26.02;8.05;;;;;;;4.81;100.00;102597.09;5225481;28;20036;-76
2023/03/04 06:21:31;;;;;;;27.95;7.85;;;;;;;4.77;100.00;102598.22;5223238;28;20021;-76
2023/03/04 06:24:02;;;;;;;22.63;6.72;;;;;;;4.79;100.00;102598.97;5222511;28;20087;-75
2023/03/04 06:26:32;;;;;;;22.92;7.40;;;;;;;4.82;100.00;102601.47;5215553;28;20032;-75
2023/03/04 06:29:05;;;;;;;21.57;7.30;;;;;;;4.83;100.00;102605.84;5218685;28;20044;-75
2023/03/04 06:31:36;;;;;;;17.42;5.63;;;;;;;4.83;100.00;102605.00;5224293;28;20029;-75
2023/03/04 06:34:07;;;;;;;14.48;6.28;;;;;;;4.81;100.00;102612.19;5206309;28;20033;-76
2023/03/04 06:36:38;;;;;;;14.60;5.38;;;;;;;4.78;100.00;102607.91;5222980;28;20029;-75
2023/03/04 06:39:09;;;;;;;20.90;5.82;;;;;;;4.81;100.00;102612.19;5224252;28;20524;-75
2023/03/04 06:41:40;;;;;;;14.70;5.55;;;;;;;4.83;100.00;102612.97;5223332;28;20025;-75
2023/03/04 06:44:10;;;;;;;20.25;5.70;;;;;;;4.85;100.00;102619.91;5223512;28;20158;-76
2023/03/04 06:46:41;;;;;;;14.45;5.88;;;;;;;4.84;100.00;102620.84;5221810;28;20017;-75
2023/03/04 06:49:11;;;;;;;21.98;4.65;;;;;;;4.88;100.00;102619.75;5221517;28;20021;-76
2023/03/04 06:51:42;;;;;;;17.65;4.95;;;;;;;4.88;100.00;102618.91;5222956;28;20025;-75
2023/03/04 06:54:16;;;;;;;12.52;4.40;;;;;;;4.94;100.00;102624.72;5223283;28;20040;-76
2023/03/04 06:56:47;;;;;;;14.80;5.18;;;;;;;4.94;100.00;102630.03;5205225;28;20025;-76
2023/03/04 06:59:18;;;;;;;13.30;4.22;;;;;;;4.99;100.00;102629.78;5222569;28;20027;-75
2023/03/04 07:01:48;;;;;;;16.90;4.45;;;;;;;5.02;100.00;102636.72;5223128;28;20056;-76
2023/03/04 07:04:19;;;;;;;19.05;4.80;;;;;;;5.03;100.00;102634.00;5196777;28;20029;-75
2023/03/04 07:06:50;;;;;;;15.20;3.97;;;;;;;5.11;100.00;102638.84;5222693;28;20025;-76
2023/03/04 07:09:20;;;;;;;12.48;4.20;;;;;;;5.09;100.00;102640.75;5219613;28;20029;-76
2023/03/04 07:11:51;;;;;;;13.60;4.40;;;;;;;5.05;100.00;102634.75;5214739;28;20049;-76
2023/03/04 07:14:21;;;;;;;22.13;4.13;;;;;;;5.02;100.00;102648.25;5222532;28;20107;-76
2023/03/04 07:16:52;;;;;;;18.05;4.63;;;;;;;5.02;100.00;102640.25;5221784;28;20104;-76
2023/03/04 07:19:23;;;;;;;17.48;3.60;;;;;;;5.08;100.00;102644.38;5222513;28;20468;-76
2023/03/04 07:21:53;;;;;;;21.00;5.53;;;;;;;5.14;100.00;102639.56;5221849;28;20029;-76
2023/03/04 07:24:24;;;;;;;17.15;4.70;;;;;;;5.09;100.00;102648.75;5222217;28;20021;-76
2023/03/04 07:26:54;;;;;;;21.38;4.05;;;;;;;5.14;100.00;102654.66;5222176;28;20135;-76
2023/03/04 07:29:25;;;;;;;18.83;4.38;;;;;;;5.20;100.00;102643.66;5222282;28;20124;-76
2023/03/04 07:31:56;;;;;;;17.45;4.10;;;;;;;5.22;100.00;102648.88;5223210;28;20104;-76
2023/03/04 07:34:29;;;;;;;16.40;3.83;;;;;;;5.24;100.00;102653.19;5210346;28;20024;-76
2023/03/04 07:37:02;;;;;;;16.17;3.67;;;;;;;5.28;100.00;102651.22;5208045;28;20029;-76
2023/03/04 07:39:37;;;;;;;17.63;3.47;;;;;;;5.28;100.00;102654.75;5208727;28;20050;-76
2023/03/04 07:42:10;;;;;;;14.93;4.22;;;;;;;5.30;100.00;102658.16;5210600;28;20520;-76
2023/03/04 07:47:36;;;;;;;13.65;3.55;;;;;;;5.27;100.00;102658.34;5226914;28;20083;-75
2023/03/04 07:50:09;;;;;;;;;;;;;;;5.28;100.00;102659.19;5193329;28;20033;-76
2023/03/04 07:52:44;;;;;;;11.82;3.75;;;;;;;5.37;100.00;102658.66;5228128;28;19909;-75
2023/03/04 07:55:18;;;;;;;16.50;3.65;;;;;;;5.38;100.00;102666.56;5228186;28;20032;-75
2023/03/04 07:57:50;;;;;;;17.58;3.33;;;;;;;5.39;100.00;102670.94;5190891;28;20052;-75
2023/03/04 08:00:23;;;;;;;14.02;3.55;;;;;;;5.37;100.00;102675.50;5193692;28;20024;-75
2023/03/04 08:02:55;;;;;;;11.60;3.78;;;;;;;5.40;100.00;102674.47;5230070;28;20033;-76
2023/03/04 08:05:28;;;;;;;36.13;4.65;;;;;;;5.37;100.00;102675.50;5224350;28;20028;-76
2023/03/04 08:08:01;;;;;;;12.73;3.08;;;;;;;5.39;100.00;102678.91;5230860;28;20036;-76
2023/03/04 08:10:38;;;;;;;10.82;2.95;;;;;;;5.39;100.00;102686.06;5179425;28;20029;-76
2023/03/04 08:13:15;;;;;;;22.52;3.45;;;;;;;5.43;100.00;102688.47;5185375;28;20036;-75
2023/03/04 08:15:47;;;;;;;10.23;2.92;;;;;;;5.54;100.00;102687.84;5199924;28;20029;-75
2023/03/04 08:18:21;;;;;;;17.30;4.57;;;;;;;5.60;100.00;102690.13;5214898;28;20090;-76
2023/03/04 08:20:53;;;;;;;19.52;3.22;;;;;;;5.59;100.00;102695.56;5198492;28;20485;-75
2023/03/04 08:23:24;;;;;;;12.25;3.13;;;;;;;5.65;100.00;102696.03;5209641;28;20036;-76
2023/03/04 08:25:55;;;;;;;14.10;4.32;;;;;;;5.64;100.00;102691.69;5226058;28;20021;-76
2023/03/04 08:28:25;;;;;;;11.57;3.70;;;;;;;5.69;100.00;102694.06;5207716;28;20021;-76
2023/03/04 08:30:56;;;;;;;19.08;3.00;;;;;;;5.74;100.00;102693.81;5225409;28;20032;-76
2023/03/04 08:33:26;;;;;;;17.05;3.25;;;;;;;5.79;100.00;102692.59;5225634;28;20092;-76
2023/03/04 08:35:57;;;;;;;13.85;3.28;;;;;;;5.75;100.00;102700.84;5225179;28;20596;-76
2023/03/04 08:38:28;;;;;;;14.68;3.50;;;;;;;5.71;100.00;102702.81;5207548;28;20025;-76
2023/03/04 08:40:58;;;;;;;13.55;2.70;;;;;;;5.75;100.00;102703.50;5225121;28;20568;-76
2023/03/04 08:43:29;;;;;;;9.90;2.58;;;;;;;5.73;100.00;102695.63;5207833;28;20029;-76
2023/03/04 08:46:00;;;;;;;20.33;4.47;;;;;;;5.74;100.00;102693.81;5225758;28;20029;-76
2023/03/04 08:48:31;;;;;;;7.03;2.78;;;;;;;5.69;100.00;102702.06;5212296;28;20024;-76
2023/03/04 08:51:06;;;;;;;15.98;3.28;;;;;;;5.67;100.00;102704.81;5224834;28;20557;-76
2023/03/04 08:53:38;;;;;;;16.67;3.58;;;;;;;5.69;100.00;102696.75;5225797;28;20086;-76
2023/03/04 08:56:09;;;;;;;12.40;3.42;;;;;;;5.74;100.00;102702.66;5224917;28;20505;-76
2023/03/04 08:58:40;;;;;;;8.38;2.88;;;;;;;5.72;100.00;102699.19;5224919;28;20021;-76
2023/03/04 09:01:12;;;;;;;16.73;3.47;;;;;;;5.73;100.00;102703.59;5224768;28;20075;-76
2023/03/04 09:03:43;;;;;;;14.48;3.65;;;;;;;5.77;100.00;102691.78;5217871;28;20056;-76
2023/03/04 09:06:15;;;;;;;9.30;2.80;;;;;;;5.86;100.00;102691.25;5223339;28;20060;-76
2023/03/04 09:08:45;;;;;;;12.80;3.50;;;;;;;6.09;100.00;102684.59;5224493;28;20033;-76
2023/03/04 09:11:19;;;;;;;11.55;3.75;;;;;;;6.51;100.00;102687.41;5224206;28;20644;-76
2023/03/04 09:13:50;;;;;;;16.13;3.00;;;;;;;6.69;100.00;102689.78;5225250;28;20024;-76
2023/03/04 09:16:22;;;;;;;14.48;2.47;;;;;;;6.69;100.00;102686.28;5225078;28;20021;-76
2023/03/04 09:18:52;;;;;;;8.52;2.28;;;;;;;6.77;100.00;102686.63;5224687;28;20028;-76
2023/03/04 09:21:27;;;;;;;10.48;2.75;;;;;;;6.65;100.00;102684.75;5224369;28;20025;-76
2023/03/04 09:23:58;;;;;;;15.27;2.30;;;;;;;6.45;100.00;102683.31;5225044;28;20042;-76
2023/03/04 09:26:29;;;;;;;15.10;2.30;;;;;;;6.42;100.00;102684.34;5224355;28;20032;-76
2023/03/04 09:29:01;;;;;;;9.00;2.10;;;;;;;6.38;100.00;102685.50;5217223;28;20025;-76
2023/03/04 09:31:31;;;;;;;11.07;2.40;;;;;;;6.33;100.00;102697.41;5221162;28;20035;-76
2023/03/04 09:34:02;;;;;;;14.38;2.35;;;;;;;6.28;100.00;102686.16;5224609;28;20115;-76
2023/03/04 09:36:33;;;;;;;10.95;2.30;;;;;;;6.36;100.00;102690.06;5221391;28;20550;-76
2023/03/04 09:39:05;;;;;;;12.05;2.47;;;;;;;6.42;100.00;102691.50;5221581;28;20676;-76
2023/03/04 09:41:42;;;;;;;9.95;2.50;;;;;;;6.42;100.00;102680.81;5223247;28;20548;-76
2023/03/04 09:44:21;;;;;;;11.95;2.60;;;;;;;6.35;100.00;102684.84;5223570;28;20036;-76
2023/03/04 09:46:54;;;;;;;9.07;2.45;;;;;;;6.35;100.00;102682.16;5205292;28;20029;-76
2023/03/04 09:49:26;;;;;;;9.80;2.55;;;;;;;6.26;100.00;102683.56;5221633;28;20082;-76
2023/03/04 09:52:08;;;;;;;6.50;2.03;;;;;;;6.22;100.00;102690.03;5221709;28;20493;-76
2023/03/04 09:54:59;;;;;;;8.02;2.50;;;;;;;6.17;100.00;102687.66;5223326;28;20195;-75
2023/03/04 09:57:57;;;;;;;14.07;2.47;;;;;;;6.15;100.00;102694.03;5223096;28;20040;-77
2023/03/04 10:00:54;;;;;;;18.67;3.95;;;;;;;6.06;100.00;102684.78;5222771;28;20033;-76
2023/03/04 10:03:41;;;;;;;13.70;3.03;;;;;;;6.07;100.00;102686.50;5218778;28;20438;-76
2023/03/04 10:06:16;;;;;;;17.05;2.85;;;;;;;6.10;100.00;102686.31;5209381;28;20032;-76
2023/03/04 10:08:51;;;;;;;11.63;3.05;;;;;;;6.08;100.00;102685.56;5225256;28;20056;-76
2023/03/04 10:11:29;;;;;;;9.82;3.20;;;;;;;6.15;100.00;102678.03;5228916;28;20021;-76
2023/03/04 10:14:37;;;;;;;13.30;2.67;;;;;;;6.18;100.00;102681.41;5223385;28;20421;-76
2023/03/04 10:17:26;;;;;;;14.32;3.50;;;;;;;6.27;100.00;102668.44;5216490;28;20453;-76
2023/03/04 10:20:17;;;;;;;23.40;2.92;;;;;;;6.27;100.00;102669.28;5222637;28;20111;-76
2023/03/04 10:22:50;;;;;;;12.10;2.95;;;;;;;6.26;100.00;102667.59;5221896;28;20130;-77
2023/03/04 10:25:26;;;;;;;16.92;4.07;;;;;;;6.31;100.00;102676.16;5206450;28;20409;-76
2023/03/04 10:28:16;;;;;;;17.63;2.95;;;;;;;6.43;100.00;102669.22;5209220;28;20021;-76
2023/03/04 10:31:21;;;;;;;11.80;3.05;;;;;;;6.46;100.00;102667.22;5218552;28;20473;-76
2023/03/04 10:33:52;;;;;;;15.60;3.97;;;;;;;6.52;100.00;102663.31;5218865;28;20053;-77
2023/03/04 10:36:57;;;;;;;9.63;3.10;;;;;;;6.72;100.00;102660.25;5222091;28;20099;-76
2023/03/04 10:39:31;;;;;;;13.98;3.30;;;;;;;7.01;100.00;102671.72;5221778;28;20041;-77
2023/03/04 10:42:13;;;;;;;12.37;3.00;;;;;;;7.08;100.00;102665.97;5200245;28;20113;-77
2023/03/04 10:44:52;;;;;;;9.90;3.38;;;;;;;7.18;100.00;102659.13;5206428;28;20106;-76
2023/03/04 10:47:25;;;;;;;14.18;3.08;;;;;;;7.22;100.00;102657.94;5218814;28;20033;-76
2023/03/04 10:49:59;;;;;;;12.48;3.58;;;;;;;7.37;100.00;102658.75;5205271;28;20032;-76
2023/03/04 10:52:37;;;;;;;12.57;3.60;;;;;;;7.50;100.00;102657.00;5223146;28;20484;-77
2023/03/04 10:55:28;;;;;;;13.93;3.45;;;;;;;7.58;100.00;102654.69;5221579;28;20035;-77
2023/03/04 10:58:18;;;;;;;19.75;3.85;;;;;;;7.62;100.00;102655.31;5222216;28;20033;-77
2023/03/04 11:01:01;;;;;;;12.27;2.92;;;;;;;7.66;100.00;102648.81;5222475;28;20025;-77
2023/03/04 11:03:35;;;;;;;7.97;3.30;;;;;;;7.65;100.00;102647.09;5218226;28;20044;-77
2023/03/04 11:06:11;;;;;;;14.32;3.10;;;;;;;7.75;100.00;102653.53;5205057;28;20021;-77
2023/03/04 11:08:43;;;;;;;12.05;3.33;;;;;;;7.79;100.00;102647.88;5204450;28;20398;-77
2023/03/04 11:11:43;;;;;;;8.80;3.25;;;;;;;7.91;100.00;102643.50;5222069;28;20258;-77
2023/03/04 11:14:22;;;;;;;7.78;3.10;;;;;;;7.95;100.00;102645.00;5204882;28;20040;-76
2023/03/04 11:16:56;;;;;;;11.95;3.42;;;;;;;8.14;100.00;102630.38;5217321;28;20032;-77
2023/03/04 11:19:37;;;;;;;8.23;3.05;;;;;;;8.28;100.00;102628.44;5215751;28;20028;-77
2023/03/04 11:22:13;;;;;;;7.25;2.92;;;;;;;8.39;100.00;102630.41;5221374;28;20029;-76
2023/03/04 11:24:50;;;;;;;8.18;2.45;;;;;;;8.47;100.00;102628.00;5204480;28;20032;-77
2023/03/04 11:27:31;;;;;;;9.50;2.53;;;;;;;8.61;100.00;102621.69;5205045;28;20021;-77
2023/03/04 11:30:35;;;;;;;11.65;2.63;;;;;;;8.92;100.00;102619.47;5221705;28;20535;-76
2023/03/04 11:33:34;;;;;;;9.70;2.50;;;;;;;8.70;100.00;102607.66;5221932;28;20028;-76
2023/03/04 11:36:30;;;;;;;6.45;2.10;;;;;;;8.77;100.00;102602.69;5198111;28;20647;-77
2023/03/04 11:39:07;;;;;;;8.32;2.30;;;;;;;8.93;100.00;102603.28;5217220;28;20025;-77
2023/03/04 11:41:45;;;;;;;10.00;2.22;;;;;;;8.94;100.00;102598.81;5218575;28;20052;-77
2023/03/04 11:44:16;;;;;;;10.98;2.13;;;;;;;8.96;100.00;102604.88;5222348;28;20020;-77
2023/03/04 11:47:29;;;;;;;10.63;3.25;;;;;;;8.91;100.00;102604.38;5203771;28;20021;-76
2023/03/04 11:50:27;;;;;;;9.07;2.65;;;;;;;8.76;100.00;102604.53;5220842;28;20041;-77
2023/03/04 11:53:33;;;;;;;10.82;2.50;;;;;;;8.52;100.00;102590.25;5217909;28;20053;-77